Time;durP1;ratioP1;P1;durP2;ratioP2;P2;SDS_P1;SDS_P2;PMS_P1;PMS_P2;Temp;Humidity;BMP_temperature;BMP_pressure;BME280_temperature;BME280_humidity;BME280_pressure;Samples;Min_cycle;Max_cycle;Signal;HPM_P1;HPM_P2
2023/11/27 00:01:55;;;;;;;;;16.67;12.33;;;;;-143.90;97.40;76350.81;4925233;28;102050;-74
2023/11/27 00:04:22;;;;;;;;;21.33;16.00;;;;;-143.90;98.06;76350.81;4926191;28;101496;-73
2023/11/27 00:06:49;;;;;;;;;17.33;13.33;;;;;-143.90;96.32;76340.47;4923286;28;101634;-74
2023/11/27 00:09:15;;;;;;;;;13.00;11.00;;;;;-143.90;96.04;76332.19;4922140;28;103049;-74
2023/11/27 00:11:42;;;;;;;;;12.33;11.00;;;;;-143.90;95.66;76326.00;4924359;28;101537;-73
2023/11/27 00:14:09;;;;;;;;;11.33;8.00;;;;;-143.90;95.62;76319.78;4924939;28;101911;-74
2023/11/27 00:16:35;;;;;;;;;9.33;7.67;;;;;-143.90;95.31;76317.72;4923107;28;101687;-74
2023/11/27 00:19:02;;;;;;;;;14.00;11.67;;;;;-143.90;94.88;76319.78;4922675;28;103711;-74
2023/11/27 00:21:29;;;;;;;;;11.67;9.67;;;;;-143.90;95.02;76319.78;4924062;28;102030;-73
2023/11/27 00:23:55;;;;;;;;;11.33;10.00;;;;;-143.90;95.38;76326.00;4899877;28;103698;-74
2023/11/27 00:29:53;;;;;;;;;7.33;7.00;;;;;-143.90;95.67;76309.44;4678831;23;104505;-73
2023/11/27 00:32:20;;;;;;;;;11.00;8.67;;;;;-143.90;95.73;76309.44;4903989;28;102849;-74
2023/11/27 00:34:46;;;;;;;;;10.00;8.00;;;;;-143.90;95.16;76309.44;4937876;28;101962;-74
2023/11/27 00:37:13;;;;;;;;;10.00;8.00;;;;;-143.90;95.31;76299.09;4925105;28;102414;-72
2023/11/27 00:39:40;;;;;;;;;4.67;4.00;;;;;-143.90;95.05;76294.97;4904598;28;103185;-73
2023/11/27 00:42:09;;;;;;;;;10.67;7.00;;;;;-143.90;95.06;76294.97;4897277;28;102758;-72
2023/11/27 00:44:36;;;;;;;;;8.67;7.00;;;;;-143.90;93.95;76297.03;4894423;28;101994;-73
2023/11/27 00:47:08;;;;;;;;;5.00;4.67;;;;;-143.90;94.37;76292.91;4893291;28;102228;-73
2023/11/27 00:49:35;;;;;;;;;5.00;4.00;;;;;-143.90;94.40;76290.84;4891769;28;104005;-73
2023/11/27 00:52:01;;;;;;;;;5.67;5.00;;;;;-143.90;94.07;76292.91;4896249;28;102173;-73
2023/11/27 00:54:28;;;;;;;;;5.00;4.00;;;;;-143.90;93.65;76288.78;4895920;28;102540;-73
2023/11/27 00:56:55;;;;;;;;;4.00;2.00;;;;;-143.90;94.67;76284.63;4895268;28;103556;-73
2023/11/27 00:59:21;;;;;;;;;1.67;1.00;;;;;-143.90;95.42;76288.78;4894795;28;103867;-73
2023/11/27 01:01:48;;;;;;;;;3.33;2.00;;;;;-143.90;95.12;76290.84;4893062;28;102140;-73
2023/11/27 01:04:15;;;;;;;;;4.33;2.00;;;;;-143.90;95.29;76284.63;4891875;28;102103;-73
2023/11/27 01:06:42;;;;;;;;;3.33;3.33;;;;;-143.90;96.79;76280.50;4897262;28;102463;-72
2023/11/27 01:09:09;;;;;;;;;3.00;2.00;;;;;-143.90;95.47;76272.22;4897742;28;104045;-74
2023/11/27 01:11:35;;;;;;;;;2.00;1.00;;;;;-143.90;95.38;76263.97;4886600;28;102203;-72
2023/11/27 01:14:02;;;;;;;;;5.00;4.67;;;;;-143.90;96.15;76270.16;4894284;28;102052;-73
2023/11/27 01:16:29;;;;;;;;;6.33;5.00;;;;;-143.90;95.68;76263.97;4895873;28;102421;-72
2023/11/27 01:18:55;;;;;;;;;5.67;5.67;;;;;-143.90;95.63;76263.97;4892499;28;104031;-73
2023/11/27 01:21:22;;;;;;;;;7.67;7.00;;;;;-143.90;94.90;76272.22;4893090;28;103373;-73
2023/11/27 01:23:49;;;;;;;;;5.00;4.00;;;;;-143.90;95.13;76280.50;4893027;28;102809;-72
2023/11/27 01:26:16;;;;;;;;;7.00;5.67;;;;;-143.90;95.56;76278.44;4894597;28;102107;-74
2023/11/27 01:28:42;;;;;;;;;7.33;6.33;;;;;-143.90;95.51;76276.38;4894729;28;103978;-72
2023/11/27 01:31:09;;;;;;;;;7.00;7.00;;;;;-143.90;96.81;76274.28;4899676;28;102851;-74
2023/11/27 01:33:35;;;;;;;;;7.00;7.00;;;;;-143.90;97.77;76274.28;4888806;28;103372;-74
2023/11/27 01:36:02;;;;;;;;;9.33;8.00;;;;;-143.90;96.58;76274.28;4894044;28;102292;-72
2023/11/27 01:38:30;;;;;;;;;11.67;11.00;;;;;-143.90;98.11;76280.50;4894118;28;104055;-72
2023/11/27 01:40:57;;;;;;;;;10.33;9.00;;;;;-143.90;97.83;76280.50;4898817;28;103783;-72
2023/11/27 01:43:24;;;;;;;;;14.33;11.00;;;;;-143.90;98.16;76278.44;4899784;28;102380;-73
2023/11/27 01:46:35;;;;;;;;;12.33;9.33;;;;;-143.90;99.50;76278.44;4900269;28;104857;-73
2023/11/27 01:49:02;;;;;;;;;17.67;15.67;;;;;-143.90;99.00;76284.63;4881561;28;108711;-71
2023/11/27 01:51:30;;;;;;;;;17.67;17.00;;;;;-143.90;99.13;76278.44;4898527;28;102252;-72
2023/11/27 01:53:58;;;;;;;;;22.33;17.67;;;;;-143.90;99.56;76270.16;4894702;28;103735;-73
2023/11/27 01:56:26;;;;;;;;;21.33;16.33;;;;;-143.90;100.00;76280.50;4898091;28;102081;-72
2023/11/27 01:58:56;;;;;;;;;18.00;14.00;;;;;-143.90;100.00;76282.56;4900738;28;104096;-72
2023/11/27 02:01:23;;;;;;;;;20.67;15.00;;;;;-143.90;100.00;76270.16;4896846;28;102716;-73
2023/11/27 02:03:50;;;;;;;;;22.67;19.00;;;;;-143.90;100.00;76280.50;4895854;28;101924;-73
2023/11/27 02:06:17;;;;;;;;;17.00;14.67;;;;;-143.90;100.00;76272.22;4895171;28;102854;-73
2023/11/27 02:08:44;;;;;;;;;18.67;15.67;;;;;-143.90;100.00;76272.22;4894941;28;104115;-73
2023/11/27 02:11:10;;;;;;;;;20.67;17.33;;;;;-143.90;100.00;76274.28;4930141;28;102175;-73
2023/11/27 02:13:37;;;;;;;;;20.33;18.33;;;;;-143.90;100.00;76272.22;4889689;28;102325;-73
2023/11/27 02:16:04;;;;;;;;;28.33;20.33;;;;;-143.90;100.00;76268.09;4900423;28;102294;-73
2023/11/27 02:18:31;;;;;;;;;17.67;14.67;;;;;-143.90;100.00;76270.16;4910811;28;103969;-73
2023/11/27 02:21:02;;;;;;;;;13.00;12.67;;;;;-143.90;100.00;76263.97;4894206;28;102660;-73
2023/11/27 02:23:29;;;;;;;;;24.00;18.00;;;;;-143.90;100.00;76266.03;4897111;28;102642;-73
2023/11/27 02:25:55;;;;;;;;;18.67;17.00;;;;;-143.90;100.00;76257.75;4890742;28;103837;-73
2023/11/27 02:28:22;;;;;;;;;23.00;17.00;;;;;-143.90;100.00;76255.69;4882538;28;103889;-73
2023/11/27 02:30:49;;;;;;;;;18.67;16.33;;;;;-143.90;100.00;76259.81;4893317;28;102282;-73
2023/11/27 02:33:16;;;;;;;;;19.67;14.67;;;;;-143.90;100.00;76245.34;4891255;28;102079;-71
2023/11/27 02:35:43;;;;;;;;;14.00;11.67;;;;;-143.90;100.00;76251.53;4894978;28;103920;-71
2023/11/27 02:38:09;;;;;;;;;15.00;14.33;;;;;-143.90;100.00;76251.53;4900275;28;108445;-73
2023/11/27 02:40:36;;;;;;;;;14.00;13.33;;;;;-143.90;100.00;76251.53;4891991;28;102113;-72
2023/11/27 02:43:03;;;;;;;;;16.67;15.33;;;;;-143.90;100.00;76247.41;4896782;28;102531;-73
2023/11/27 02:45:32;;;;;;;;;11.00;9.33;;;;;-143.90;100.00;76247.41;4898860;28;102078;-73
2023/11/27 02:47:58;;;;;;;;;16.33;14.00;;;;;-143.90;100.00;76247.41;4893622;28;104197;-73
2023/11/27 02:50:25;;;;;;;;;20.00;14.00;;;;;-143.90;100.00;76251.53;4892499;28;102580;-72
2023/11/27 02:52:51;;;;;;;;;21.33;14.67;;;;;-143.90;100.00;76247.41;4898957;28;102546;-72
2023/11/27 02:55:18;;;;;;;;;21.67;18.00;;;;;-143.90;100.00;76261.88;4899088;28;102274;-72
2023/11/27 02:57:46;;;;;;;;;33.67;22.67;;;;;-143.90;100.00;76268.09;4900642;28;104039;-73
2023/11/27 03:00:13;;;;;;;;;26.00;20.00;;;;;-143.90;100.00;76268.09;4898996;28;102948;-73
2023/11/27 03:02:40;;;;;;;;;18.00;16.00;;;;;-143.90;100.00;76266.03;4895267;28;102898;-73
2023/11/27 03:05:08;;;;;;;;;18.00;17.67;;;;;-143.90;100.00;76268.09;4892016;28;104161;-72
2023/11/27 03:07:35;;;;;;;;;27.00;20.33;;;;;-143.90;100.00;76268.09;4890816;28;104304;-72
2023/11/27 03:10:03;;;;;;;;;24.67;20.00;;;;;-143.90;100.00;76259.81;4895329;28;103552;-71
2023/11/27 03:12:30;;;;;;;;;27.67;24.67;;;;;-143.90;100.00;76259.81;4895531;28;102459;-72
2023/11/27 03:14:56;;;;;;;;;23.33;17.67;;;;;-143.90;100.00;76255.69;4902066;28;102382;-72
2023/11/27 03:17:23;;;;;;;;;20.00;17.00;;;;;-143.90;100.00;76241.22;4891458;28;104104;-72
2023/11/27 03:19:52;;;;;;;;;20.00;14.00;;;;;-143.90;100.00;76243.28;4897160;28;102460;-73
2023/11/27 03:22:20;;;;;;;;;14.33;11.67;;;;;-143.90;100.00;76241.22;4891376;28;102348;-73
2023/11/27 03:24:47;;;;;;;;;23.67;20.67;;;;;-143.90;100.00;76259.81;4895486;28;102306;-72
2023/11/27 03:27:13;;;;;;;;;33.00;24.00;;;;;-143.90;100.00;76255.69;4898687;28;105556;-72
2023/11/27 03:29:40;;;;;;;;;30.67;24.33;;;;;-143.90;100.00;76261.88;4897676;28;102906;-73
2023/11/27 03:32:07;;;;;;;;;36.00;26.33;;;;;-143.90;100.00;76263.97;4924041;28;102306;-73
2023/11/27 03:34:34;;;;;;;;;23.00;20.00;;;;;-143.90;100.00;76255.69;4892448;28;102952;-73
2023/11/27 03:37:01;;;;;;;;;27.67;20.67;;;;;-143.90;100.00;76251.53;4894626;28;104019;-74
2023/11/27 03:39:27;;;;;;;;;21.00;17.33;;;;;-143.90;100.00;76241.22;4898659;28;102537;-72
2023/11/27 03:41:54;;;;;;;;;22.33;14.00;;;;;-143.90;100.00;76235.00;4891988;28;102423;-72
2023/11/27 03:44:21;;;;;;;;;22.33;18.00;;;;;-143.90;100.00;76230.88;4892073;28;102452;-72
2023/11/27 03:46:47;;;;;;;;;22.00;15.00;;;;;-143.90;100.00;76235.00;4895131;28;105655;-72
2023/11/27 03:49:14;;;;;;;;;21.67;18.00;;;;;-143.90;100.00;76239.13;4904608;28;102496;-72
2023/11/27 03:51:41;;;;;;;;;17.33;13.67;;;;;-143.90;100.00;76230.88;4892810;28;102506;-73
2023/11/27 03:54:11;;;;;;;;;22.33;17.33;;;;;-143.90;100.00;76230.88;4897281;28;103285;-73
2023/11/27 03:56:38;;;;;;;;;22.00;17.00;;;;;-143.90;100.00;76235.00;4902649;28;104146;-72
2023/11/27 03:59:04;;;;;;;;;23.00;19.33;;;;;-143.90;100.00;76247.41;4897966;28;104003;-73
2023/11/27 04:01:31;;;;;;;;;20.33;20.00;;;;;-143.90;100.00;76247.41;4891507;28;102781;-72
2023/11/27 04:03:59;;;;;;;;;35.33;22.33;;;;;-143.90;100.00;76266.03;4892860;28;102233;-73
2023/11/27 04:06:30;;;;;;;;;29.00;22.33;;;;;-143.90;100.00;76263.97;4893660;28;103970;-72
2023/11/27 04:08:58;;;;;;;;;29.00;23.00;;;;;-143.90;100.00;76272.22;4891528;28;102404;-71
2023/11/27 04:11:27;;;;;;;;;20.67;19.33;;;;;-143.90;100.00;76284.63;4900937;28;102160;-73
2023/11/27 04:13:57;;;;;;;;;37.67;24.33;;;;;-143.90;100.00;76290.84;4897281;28;102480;-73
2023/11/27 04:16:24;;;;;;;;;28.00;21.00;;;;;-143.90;100.00;76294.97;4890248;28;104118;-73
2023/11/27 04:18:51;;;;;;;;;25.00;20.33;;;;;-143.90;100.00;76301.19;4886809;28;102457;-73
2023/11/27 04:21:18;;;;;;;;;34.00;23.00;;;;;-143.90;100.00;76290.84;4892363;28;102068;-73
2023/11/27 04:23:46;;;;;;;;;22.00;15.67;;;;;-143.90;100.00;76292.91;4896499;28;102454;-72
2023/11/27 04:26:13;;;;;;;;;23.67;21.00;;;;;-143.90;100.00;76307.38;4899596;28;104120;-73
2023/11/27 04:28:40;;;;;;;;;24.67;21.33;;;;;-143.90;100.00;76303.25;4894508;28;102245;-73
2023/11/27 04:31:08;;;;;;;;;27.00;25.33;;;;;-143.90;100.00;76309.44;4898864;28;102277;-73
2023/11/27 04:33:35;;;;;;;;;30.67;29.00;;;;;-143.90;100.00;76305.31;4896437;28;102434;-73
2023/11/27 04:36:02;;;;;;;;;23.00;20.00;;;;;-143.90;100.00;76286.69;4891073;28;104018;-73
2023/11/27 04:38:29;;;;;;;;;30.00;23.00;;;;;-143.90;100.00;76294.97;4890456;28;102678;-73
2023/11/27 04:40:55;;;;;;;;;33.67;28.00;;;;;-143.90;100.00;76297.03;4838739;28;102635;-73
2023/11/27 04:43:22;;;;;;;;;29.33;24.00;;;;;-143.90;100.00;76288.78;4850908;28;102235;-73
2023/11/27 04:45:49;;;;;;;;;26.67;26.00;;;;;-143.90;100.00;76297.03;4888963;28;104187;-72
2023/11/27 04:48:15;;;;;;;;;29.67;27.00;;;;;-143.90;100.00;76297.03;4889543;28;102551;-72
2023/11/27 04:50:43;;;;;;;;;40.67;34.00;;;;;-143.90;100.00;76309.44;4888138;28;102976;-73
2023/11/27 04:53:10;;;;;;;;;27.00;21.00;;;;;-143.90;100.00;76305.31;4922605;28;102505;-73
2023/11/27 04:55:37;;;;;;;;;40.00;31.33;;;;;-143.90;100.00;76309.44;4889920;28;103526;-72
2023/11/27 04:58:03;;;;;;;;;34.67;28.67;;;;;-143.90;100.00;76301.19;4886705;28;102698;-72
2023/11/27 05:00:30;;;;;;;;;30.00;22.00;;;;;-143.90;100.00;76292.91;4890084;28;102322;-72
2023/11/27 05:02:57;;;;;;;;;46.33;36.00;;;;;-143.90;100.00;76313.59;4886527;28;103630;-71
2023/11/27 05:05:24;;;;;;;;;47.67;40.33;;;;;-143.90;100.00;76326.00;4893011;28;104060;-71
2023/11/27 05:07:50;;;;;;;;;43.33;33.67;;;;;-143.90;100.00;76328.06;4890952;28;102318;-72
2023/11/27 05:10:17;;;;;;;;;44.67;35.00;;;;;-143.90;100.00;76326.00;4889472;28;102361;-72
2023/11/27 05:12:45;;;;;;;;;32.00;24.33;;;;;-143.90;100.00;76317.72;4893571;28;102273;-71
2023/11/27 05:15:11;;;;;;;;;35.67;29.33;;;;;-143.90;100.00;76311.53;4892044;28;108893;-72
2023/11/27 05:17:38;;;;;;;;;29.67;26.00;;;;;-143.90;100.00;76294.97;4888073;28;102634;-73
2023/11/27 05:20:05;;;;;;;;;25.33;19.67;;;;;-143.90;100.00;76284.63;4890927;28;103760;-72
2023/11/27 05:22:32;;;;;;;;;21.00;17.00;;;;;-143.90;100.00;76276.38;4892837;28;102127;-72
2023/11/27 05:24:59;;;;;;;;;26.00;23.00;;;;;-143.90;100.00;76280.50;4891166;28;104106;-72
2023/11/27 05:27:25;;;;;;;;;16.67;15.67;;;;;-143.90;100.00;76284.63;4886296;28;102587;-72
2023/11/27 05:29:52;;;;;;;;;28.33;22.33;;;;;-143.90;100.00;76284.63;4872449;28;102234;-72
2023/11/27 05:32:18;;;;;;;;;28.00;20.00;;;;;-143.90;100.00;76288.78;4891902;28;102014;-72
2023/11/27 05:34:45;;;;;;;;;31.00;24.67;;;;;-143.90;100.00;76284.63;4891400;28;104245;-71
2023/11/27 05:37:12;;;;;;;;;20.00;18.67;;;;;-143.90;100.00;76286.69;4895646;28;102176;-73
2023/11/27 05:39:41;;;;;;;;;19.00;14.67;;;;;-143.90;100.00;76280.50;4894433;28;102265;-73
2023/11/27 05:42:11;;;;;;;;;32.00;21.33;;;;;-143.90;100.00;76288.78;4887608;28;102188;-72
2023/11/27 05:44:40;;;;;;;;;30.00;26.33;;;;;-143.90;100.00;76299.09;4887782;28;109595;-72
2023/11/27 05:47:06;;;;;;;;;42.00;33.00;;;;;-143.90;100.00;76311.53;4894863;28;102852;-72
2023/11/27 05:49:33;;;;;;;;;29.00;26.00;;;;;-143.90;100.00;76323.94;4886445;28;102498;-73
2023/11/27 05:52:00;;;;;;;;;34.33;30.33;;;;;-143.90;100.00;76326.00;4893123;28;102922;-72
2023/11/27 05:54:27;;;;;;;;;37.33;33.33;;;;;-143.90;100.00;76323.94;4888990;28;103960;-72
2023/11/27 05:56:54;;;;;;;;;38.33;32.67;;;;;-143.90;100.00;76321.84;4888743;28;108067;-72
2023/11/27 05:59:21;;;;;;;;;43.33;41.33;;;;;-143.90;100.00;76344.59;4894859;28;102032;-72
2023/11/27 06:01:48;;;;;;;;;44.00;38.00;;;;;-143.90;100.00;76348.75;4895240;28;102330;-72
2023/11/27 06:04:15;;;;;;;;;40.67;36.00;;;;;-143.90;100.00;76342.53;4898894;28;103987;-72
2023/11/27 06:06:41;;;;;;;;;59.25;46.00;;;;;-143.90;100.00;76350.81;4896759;28;102495;-72
2023/11/27 06:09:08;;;;;;;;;59.00;47.00;;;;;-143.90;100.00;76359.09;4894702;28;102313;-72
2023/11/27 06:11:35;;;;;;;;;64.75;48.25;;;;;-143.90;100.00;76357.00;4897425;28;102003;-72
2023/11/27 06:14:02;;;;;;;;;47.00;43.33;;;;;-143.90;100.00;76346.69;4896474;28;104071;-72
2023/11/27 06:16:28;;;;;;;;;61.75;46.50;;;;;-143.90;100.00;76346.69;4892934;28;102433;-72
2023/11/27 06:18:55;;;;;;;;;52.00;42.33;;;;;-143.90;100.00;76342.53;4897266;28;102118;-72
2023/11/27 06:21:22;;;;;;;;;43.50;31.25;;;;;-143.90;100.00;76330.13;4900155;28;103747;-72
2023/11/27 06:23:51;;;;;;;;;61.50;47.00;;;;;-143.90;100.00;76334.25;4899758;28;104158;-72
2023/11/27 06:26:18;;;;;;;;;50.75;43.75;;;;;-143.90;100.00;76344.59;4896023;28;102256;-72
2023/11/27 06:28:45;;;;;;;;;67.75;50.00;;;;;-143.90;100.00;76346.69;4889141;28;102242;-72
2023/11/27 06:31:11;;;;;;;;;54.00;47.25;;;;;-143.90;100.00;76340.47;4894277;28;103274;-71
2023/11/27 06:33:38;;;;;;;;;50.33;44.00;;;;;-143.90;100.00;76338.41;4898666;28;104161;-72
2023/11/27 06:36:05;;;;;;;;;39.33;32.00;;;;;-143.90;100.00;76334.25;4897933;28;102702;-73
2023/11/27 06:38:32;;;;;;;;;50.67;37.67;;;;;-143.90;100.00;76338.41;4896896;28;102493;-72
2023/11/27 06:40:59;;;;;;;;;47.33;40.00;;;;;-143.90;100.00;76340.47;4897222;28;102034;-72
2023/11/27 06:43:27;;;;;;;;;45.00;38.00;;;;;-143.90;100.00;76336.34;4894535;28;104210;-72
2023/11/27 06:45:54;;;;;;;;;37.33;33.00;;;;;-143.90;100.00;76326.00;4895407;28;102424;-71
2023/11/27 06:48:20;;;;;;;;;48.33;39.00;;;;;-143.90;100.00;76326.00;4898864;28;102465;-72
2023/11/27 06:50:47;;;;;;;;;58.75;43.75;;;;;-143.90;100.00;76338.41;4896358;28;102394;-72
2023/11/27 06:53:14;;;;;;;;;42.00;42.00;;;;;-143.90;100.00;76332.19;4829682;28;104204;-71
2023/11/27 06:55:41;;;;;;;;;68.25;54.00;;;;;-143.90;100.00;76344.59;4833847;28;102240;-73
2023/11/27 06:58:08;;;;;;;;;72.50;55.50;;;;;-143.90;100.00;76334.25;4827640;28;102619;-71
2023/11/27 07:00:35;;;;;;;;;75.00;55.25;;;;;-143.90;100.00;76326.00;4829256;28;102161;-71
2023/11/27 07:03:03;;;;;;;;;81.75;62.75;;;;;-143.90;100.00;76338.41;4828095;28;104230;-71
2023/11/27 07:05:30;;;;;;;;;78.25;59.50;;;;;-143.90;100.00;76332.19;4831754;28;103455;-72
2023/11/27 07:07:57;;;;;;;;;77.75;57.75;;;;;-143.90;100.00;76336.34;4829021;28;102366;-72
2023/11/27 07:10:25;;;;;;;;;59.75;49.00;;;;;-143.90;100.00;76340.47;4824322;28;102187;-72
2023/11/27 07:12:52;;;;;;;;;61.50;50.25;;;;;-143.90;100.00;76326.00;4830774;28;104156;-71
2023/11/27 07:15:19;;;;;;;;;70.50;51.50;;;;;-143.90;100.00;76334.25;4829184;28;103896;-71
2023/11/27 07:17:46;;;;;;;;;31.50;20.25;;;;;-143.90;100.00;76336.34;4831496;28;102123;-72
2023/11/27 07:20:17;;;;;;;;;71.00;52.25;;;;;-143.90;100.00;76346.69;4844606;28;103366;-72
2023/11/27 07:22:47;;;;;;;;;68.25;53.25;;;;;-143.90;100.00;76350.81;4879473;28;108829;-71
2023/11/27 07:25:17;;;;;;;;;58.67;48.00;;;;;-143.90;100.00;76354.94;4890492;28;104083;-72
2023/11/27 07:27:45;;;;;;;;;51.00;35.67;;;;;-143.90;100.00;76367.34;4887754;28;102228;-72
2023/11/27 07:30:12;;;;;;;;;51.00;40.67;;;;;-143.90;100.00;76369.41;4889147;28;102044;-72
2023/11/27 07:32:39;;;;;;;;;52.00;41.33;;;;;-143.90;100.00;76375.63;4881419;28;106133;-71
2023/11/27 07:35:07;;;;;;;;;50.00;38.00;;;;;-143.90;100.00;76375.63;4884354;28;102600;-72
2023/11/27 07:37:33;;;;;;;;;44.33;39.00;;;;;-143.90;100.00;76390.09;4891913;28;102453;-72
2023/11/27 07:40:01;;;;;;;;;35.33;29.67;;;;;-143.90;100.00;76361.16;4896549;28;102457;-72
2023/11/27 07:42:28;;;;;;;;;48.33;38.33;;;;;-143.90;100.00;76354.94;4890655;28;104000;-71
2023/11/27 07:44:54;;;;;;;;;35.67;29.00;;;;;-143.90;100.00;76330.13;4884391;28;102569;-72
2023/11/27 07:47:22;;;;;;;;;20.00;17.00;;;;;-143.90;100.00;76311.53;4897726;28;102024;-71
2023/11/27 07:49:49;;;;;;;;;28.33;25.00;;;;;-143.90;100.00;76297.03;4899388;28;102218;-72
2023/11/27 07:52:16;;;;;;;;;40.67;36.00;;;;;-143.90;100.00;76307.38;4894192;28;103983;-73
2023/11/27 07:54:43;;;;;;;;;42.33;35.67;;;;;-143.90;100.00;76292.91;4895731;28;102504;-71
2023/11/27 07:57:10;;;;;;;;;49.33;36.00;;;;;-143.90;100.00;76286.69;4891009;28;102381;-71
2023/11/27 07:59:36;;;;;;;;;48.00;43.33;;;;;-143.90;100.00;76280.50;4885125;28;102310;-71
2023/11/27 08:02:03;;;;;;;;;53.00;43.00;;;;;-143.90;100.00;76286.69;4896543;28;104062;-72
2023/11/27 08:04:32;;;;;;;;;49.67;44.00;;;;;-143.90;100.00;76305.31;4888029;28;102572;-71
2023/11/27 08:07:00;;;;;;;;;51.33;41.00;;;;;-143.90;100.00;76292.91;4891000;28;103661;-71
2023/11/27 08:09:27;;;;;;;;;52.00;43.00;;;;;-143.90;100.00;76292.91;4894544;28;102435;-72
2023/11/27 08:11:54;;;;;;;;;53.67;39.33;;;;;-143.90;100.00;76299.09;4893492;28;104389;-73
2023/11/27 08:14:21;;;;;;;;;36.00;29.33;;;;;-143.90;100.00;76259.81;4898382;28;102163;-72
2023/11/27 08:16:48;;;;;;;;;49.33;43.00;;;;;-143.90;100.00;76270.16;4894181;28;102475;-72
2023/11/27 08:19:16;;;;;;;;;50.00;37.33;;;;;-143.90;100.00;76284.63;4894450;28;102026;-71
2023/11/27 08:21:44;;;;;;;;;55.67;40.00;;;;;-143.90;100.00;76276.38;4896090;28;103991;-71
2023/11/27 08:24:14;;;;;;;;;55.00;40.67;;;;;-143.90;100.00;76272.22;4927723;28;102258;-71
2023/11/27 08:26:42;;;;;;;;;48.00;37.00;;;;;-143.90;100.00;76266.03;4894550;28;102595;-72
2023/11/27 08:29:09;;;;;;;;;40.33;33.33;;;;;-143.90;100.00;76270.16;4895222;28;102339;-70
2023/11/27 08:31:36;;;;;;;;;35.33;33.33;;;;;-143.90;100.00;76255.69;4896753;28;103861;-71
2023/11/27 08:34:03;;;;;;;;;52.33;37.33;;;;;-143.90;100.00;76263.97;4891390;28;103115;-71
2023/11/27 08:36:32;;;;;;;;;38.33;34.67;;;;;-143.90;100.00;76243.28;4903283;28;102806;-72
2023/11/27 08:39:02;;;;;;;;;42.00;30.67;;;;;-143.90;100.00;76243.28;4900885;28;102172;-71
2023/11/27 08:41:30;;;;;;;;;36.33;29.67;;;;;-143.90;100.00;76245.34;4898869;28;102804;-70
2023/11/27 08:43:57;;;;;;;;;32.67;29.00;;;;;-143.90;100.00;76232.94;4903138;28;101993;-71
2023/11/27 08:46:24;;;;;;;;;34.33;26.67;;;;;-143.90;100.00;76230.88;4895818;28;102091;-72
2023/11/27 08:48:51;;;;;;;;;34.67;28.33;;;;;-143.90;100.00;76239.13;4892080;28;104035;-72
2023/11/27 08:51:21;;;;;;;;;30.00;29.67;;;;;-143.90;100.00;76247.41;4889154;28;102964;-70
2023/11/27 08:53:48;;;;;;;;;35.00;29.67;;;;;-143.90;100.00;76232.94;4892703;28;104469;-71
2023/11/27 08:56:17;;;;;;;;;33.67;28.00;;;;;-143.90;100.00;76208.13;4889647;28;101975;-70
2023/11/27 08:58:47;;;;;;;;;33.00;25.00;;;;;-143.90;100.00;76197.78;4894614;28;102632;-70
2023/11/27 09:01:16;;;;;;;;;27.67;23.33;;;;;-143.90;100.00;76168.81;4891098;28;108542;-70
2023/11/27 09:03:44;;;;;;;;;35.00;26.67;;;;;-143.90;100.00;76168.81;4889203;28;103020;-71
2023/11/27 09:06:11;;;;;;;;;28.33;23.67;;;;;-143.90;100.00;76148.16;4887043;28;102408;-71
2023/11/27 09:08:42;;;;;;;;;28.33;24.67;;;;;-143.90;99.21;76156.41;4885733;28;102398;-71
2023/11/27 09:11:10;;;;;;;;;27.00;23.00;;;;;-143.90;98.93;76141.94;4876613;28;104037;-71
2023/11/27 09:13:38;;;;;;;;;28.67;23.67;;;;;-143.90;98.04;76104.72;4892994;28;103553;-71
2023/11/27 09:16:05;;;;;;;;;23.00;20.33;;;;;-143.90;97.25;76106.78;4893678;28;102163;-71
2023/11/27 09:18:32;;;;;;;;;33.33;29.33;;;;;-143.90;97.62;76148.16;4894797;28;102447;-72
2023/11/27 09:20:59;;;;;;;;;22.33;17.33;;;;;-143.90;96.38;76150.22;4894049;28;104279;-72
2023/11/27 09:23:25;;;;;;;;;23.33;19.33;;;;;-143.90;96.33;76139.88;4893000;28;102325;-70
2023/11/27 09:25:52;;;;;;;;;18.00;17.33;;;;;-143.90;96.77;76123.34;4895052;28;102502;-71
2023/11/27 09:28:19;;;;;;;;;17.33;15.00;;;;;-143.90;96.92;76113.00;4896142;28;102052;-70
2023/11/27 09:30:47;;;;;;;;;21.00;17.33;;;;;-143.90;95.19;76110.94;4892622;28;104061;-70
2023/11/27 09:33:13;;;;;;;;;15.00;14.00;;;;;-143.90;95.39;76119.19;4895684;28;103489;-71
2023/11/27 09:35:40;;;;;;;;;17.33;15.67;;;;;-143.90;94.07;76131.59;4894356;28;103563;-71
2023/11/27 09:38:08;;;;;;;;;21.67;17.67;;;;;-143.90;94.75;76121.28;4870452;28;102590;-71
2023/11/27 09:40:40;;;;;;;;;14.67;10.33;;;;;-143.90;93.35;76102.66;4891336;28;104209;-71
2023/11/27 09:43:07;;;;;;;;;21.33;18.33;;;;;-143.90;91.04;76073.72;4893717;28;103272;-71
2023/11/27 09:45:34;;;;;;;;;14.00;12.67;;;;;-143.90;92.34;76053.03;4893299;28;102088;-71
2023/11/27 09:48:07;;;;;;;;;20.33;19.00;;;;;-143.90;93.81;76055.09;4895399;28;102406;-71
2023/11/27 09:50:35;;;;;;;;;22.33;18.67;;;;;-143.90;94.08;76044.75;4890236;28;103965;-72
2023/11/27 09:53:05;;;;;;;;;20.33;16.67;;;;;-143.90;94.64;76046.81;4884413;28;103197;-72
2023/11/27 09:55:37;;;;;;;;;22.00;18.00;;;;;-143.90;93.61;76059.22;4890784;28;102035;-72
2023/11/27 09:58:05;;;;;;;;;12.67;9.67;;;;;-143.90;91.05;76028.22;4883596;28;104101;-72
2023/11/27 10:00:33;;;;;;;;;19.33;18.33;;;;;-143.90;91.70;76042.69;4886303;28;104095;-71
2023/11/27 10:03:02;;;;;;;;;20.00;14.00;;;;;-143.90;92.59;76028.22;4893566;28;102259;-70
2023/11/27 10:05:29;;;;;;;;;17.33;15.00;;;;;-143.90;92.00;76024.06;4897105;28;102316;-71
2023/11/27 10:07:57;;;;;;;;;13.33;11.33;;;;;-143.90;91.43;76028.22;4898582;28;102290;-72
2023/11/27 10:10:25;;;;;;;;;22.00;15.67;;;;;-143.90;89.68;76048.88;4895087;28;104403;-71
2023/11/27 10:12:58;;;;;;;;;12.67;9.67;;;;;-143.90;91.07;76059.22;4895810;28;102057;-71
2023/11/27 10:15:28;;;;;;;;;19.33;15.67;;;;;-143.90;91.04;76053.03;4898370;28;102585;-71
2023/11/27 10:18:00;;;;;;;;;17.33;16.33;;;;;-143.90;90.95;76073.72;4899171;28;102681;-72
2023/11/27 10:20:31;;;;;;;;;24.67;20.33;;;;;-143.90;92.55;76069.56;4895457;28;104057;-73
2023/11/27 10:22:58;;;;;;;;;25.33;18.00;;;;;-143.90;92.05;76044.75;4896866;28;102619;-71
2023/11/27 10:25:25;;;;;;;;;21.00;16.00;;;;;-143.90;90.35;75999.25;4892766;28;101962;-70
2023/11/27 10:28:00;;;;;;;;;23.00;21.67;;;;;-143.90;88.93;76003.41;4899293;28;102020;-71
2023/11/27 10:30:30;;;;;;;;;19.00;15.00;;;;;-143.90;90.01;75945.50;4895928;28;104106;-71
2023/11/27 10:32:57;;;;;;;;;16.67;14.00;;;;;-143.90;85.49;75935.16;4895418;28;102643;-70
2023/11/27 10:35:25;;;;;;;;;14.67;9.00;;;;;-143.90;86.24;75912.41;4901248;28;102505;-70
2023/11/27 10:37:56;;;;;;;;;9.67;7.33;;;;;-143.90;85.99;75887.59;4898585;28;101990;-72
2023/11/27 10:40:26;;;;;;;;;25.33;16.00;;;;;-143.90;84.99;75926.88;4894579;28;104288;-71
2023/11/27 10:43:01;;;;;;;;;12.33;11.00;;;;;-143.90;84.83;75891.75;4896637;28;102499;-70
2023/11/27 10:45:29;;;;;;;;;13.00;7.33;;;;;-143.90;85.56;75875.19;4893460;28;102761;-71
2023/11/27 10:48:01;;;;;;;;;22.67;17.67;;;;;-143.90;85.63;75924.81;4879883;28;103192;-70
2023/11/27 10:50:33;;;;;;;;;21.67;20.00;;;;;-143.90;84.39;75935.16;4887449;28;103980;-70
2023/11/27 10:53:03;;;;;;;;;23.00;13.33;;;;;-143.90;81.50;75902.06;4817006;28;103761;-71
2023/11/27 10:55:31;;;;;;;;;16.67;13.00;;;;;-143.90;79.50;75953.78;4818239;28;103298;-70
2023/11/27 10:57:59;;;;;;;;;20.50;15.75;;;;;-143.90;81.99;75968.25;4865735;28;103274;-70